createdAt,value
2023-05-06T00:03:17.186Z,3.72
2023-05-06T00:09:24.103Z,5.10
2023-05-06T00:15:30.099Z,4.35
2023-05-06T00:21:34.953Z,5.30
2023-05-06T00:27:39.830Z,3.65
2023-05-06T00:33:44.400Z,4.45
2023-05-06T00:39:47.895Z,5.47
2023-05-06T00:45:53.241Z,5.13
2023-05-06T00:51:57.984Z,5.38
2023-05-06T00:58:01.827Z,6.00
2023-05-06T01:04:08.770Z,5.65
2023-05-06T01:10:18.823Z,5.75
2023-05-06T01:16:22.963Z,4.53
2023-05-06T01:22:28.404Z,6.18
2023-05-06T01:28:33.190Z,6.22
2023-05-06T01:34:41.009Z,5.25
2023-05-06T01:40:46.681Z,5.28
2023-05-06T01:46:51.788Z,4.78
2023-05-06T01:53:00.147Z,5.18
2023-05-06T01:59:03.919Z,6.22
2023-05-06T02:05:09.819Z,6.63
2023-05-06T02:11:13.573Z,7.75
2023-05-06T02:17:17.178Z,5.05
2023-05-06T02:23:22.118Z,4.40
2023-05-06T02:29:25.824Z,6.13
2023-05-06T02:35:29.568Z,6.55
2023-05-06T02:41:34.328Z,5.95
2023-05-06T02:47:38.029Z,5.00
2023-05-06T02:53:41.440Z,5.32
2023-05-06T02:59:46.387Z,4.80
2023-05-06T03:05:49.772Z,6.88
2023-05-06T03:11:53.302Z,5.15
2023-05-06T03:17:58.110Z,5.43
2023-05-06T03:24:02.098Z,5.63
2023-05-06T03:30:06.658Z,6.32
2023-05-06T03:36:12.808Z,5.32
2023-05-06T03:42:16.260Z,5.15
2023-05-06T03:48:19.647Z,5.85
2023-05-06T03:54:24.893Z,6.40
2023-05-06T04:00:28.534Z,4.53
2023-05-06T04:06:32.106Z,5.28
2023-05-06T04:12:37.469Z,4.38
2023-05-06T04:18:40.973Z,6.65
2023-05-06T04:24:45.740Z,5.65
2023-05-06T04:30:50.970Z,4.70
2023-05-06T04:36:54.398Z,7.00
2023-05-06T04:42:57.839Z,6.45
2023-05-06T04:49:02.605Z,6.10
2023-05-06T04:55:06.603Z,5.85
2023-05-06T05:01:10.772Z,5.63
2023-05-06T05:07:15.561Z,6.63
2023-05-06T05:13:19.165Z,5.45
2023-05-06T05:19:22.958Z,8.52
2023-05-06T05:25:27.881Z,4.70
2023-05-06T05:31:32.225Z,4.30
2023-05-06T05:37:35.977Z,4.88
2023-05-06T05:43:40.769Z,5.68
2023-05-06T05:49:44.473Z,6.07
2023-05-06T05:55:47.863Z,6.75
2023-05-06T06:01:52.617Z,8.43
2023-05-06T06:07:56.161Z,6.68
2023-05-06T06:14:00.233Z,7.50
2023-05-06T06:20:05.353Z,5.55
2023-05-06T06:26:09.951Z,5.90
2023-05-06T06:32:14.538Z,7.10
2023-05-06T06:38:19.322Z,8.45
2023-05-06T06:44:22.802Z,6.75
2023-05-06T06:50:26.901Z,5.68
2023-05-06T06:56:31.988Z,6.63
2023-05-06T07:02:35.568Z,5.47
2023-05-06T07:08:39.394Z,6.40
2023-05-06T07:14:44.166Z,6.78
2023-05-06T07:20:47.634Z,6.07
2023-05-06T07:26:51.448Z,4.90
2023-05-06T07:32:56.229Z,7.93
2023-05-06T07:39:00.000Z,2.95
2023-05-06T07:45:03.392Z,5.43
2023-05-06T07:51:08.432Z,8.50
2023-05-06T07:57:11.877Z,5.45
2023-05-06T08:03:16.941Z,5.05
2023-05-06T08:09:23.158Z,5.10
2023-05-06T08:15:27.486Z,6.38
2023-05-06T08:21:30.933Z,4.65
2023-05-06T08:27:35.789Z,4.75
2023-05-06T08:33:39.223Z,4.85
2023-05-06T08:39:42.612Z,5.35
2023-05-06T08:45:47.540Z,4.85
2023-05-06T08:51:52.608Z,6.28
2023-05-06T08:57:56.641Z,4.40
2023-05-06T09:04:04.271Z,4.65
2023-05-06T09:10:08.700Z,4.45
2023-05-06T09:16:12.321Z,4.45
2023-05-06T09:22:17.244Z,3.90
2023-05-06T09:28:21.137Z,3.47
2023-05-06T09:34:25.051Z,4.95
2023-05-06T09:40:30.829Z,5.35
2023-05-06T09:46:34.479Z,2.42
2023-05-06T09:52:39.111Z,4.03
2023-05-06T09:58:44.322Z,3.28
2023-05-06T10:04:48.154Z,3.05
2023-05-06T10:10:52.314Z,2.20
2023-05-06T10:16:57.833Z,5.25
2023-05-06T10:23:05.595Z,2.15
2023-05-06T10:29:11.284Z,2.15
2023-05-06T10:35:20.499Z,2.92
2023-05-06T10:41:26.189Z,3.40
2023-05-06T10:47:29.620Z,3.47
2023-05-06T10:53:54.189Z,3.00
2023-05-06T10:59:59.282Z,4.57
2023-05-06T11:06:03.117Z,4.25
2023-05-06T11:12:07.769Z,3.47
2023-05-06T11:18:26.815Z,3.78
2023-05-06T11:24:33.461Z,6.45
2023-05-06T11:30:38.065Z,10.13
2023-05-06T11:36:48.529Z,3.65
2023-05-06T11:42:53.357Z,2.88
2023-05-06T11:48:56.747Z,7.15
2023-05-06T11:55:00.169Z,7.43
2023-05-06T12:01:06.396Z,5.10
2023-05-06T12:07:10.810Z,4.82
2023-05-06T12:13:15.853Z,4.28
2023-05-06T12:19:21.014Z,6.10
2023-05-06T12:25:24.427Z,3.05
2023-05-06T12:31:28.762Z,2.75
2023-05-06T12:37:33.592Z,3.97
2023-05-06T12:43:37.047Z,3.33
2023-05-06T12:49:47.808Z,3.63
2023-05-06T12:55:52.699Z,1.98
2023-05-06T13:01:56.084Z,2.75
2023-05-06T13:07:59.469Z,2.50
2023-05-06T13:14:05.183Z,2.58
2023-05-06T13:20:09.287Z,3.20
2023-05-06T13:26:12.855Z,4.32
2023-05-06T13:32:17.709Z,2.65
2023-05-06T13:38:21.826Z,3.40
2023-05-06T13:44:25.574Z,2.83
2023-05-06T13:50:30.317Z,2.92
2023-05-06T13:56:34.029Z,4.70
2023-05-06T14:02:37.611Z,2.17
2023-05-06T14:08:42.461Z,2.92
2023-05-06T14:14:46.148Z,3.83
2023-05-06T14:20:49.581Z,2.95
2023-05-06T14:26:54.415Z,4.13
2023-05-06T14:32:58.842Z,2.78
2023-05-06T14:39:02.314Z,2.38
2023-05-06T14:45:08.275Z,3.22
2023-05-06T14:51:11.827Z,3.08
2023-05-06T14:57:15.624Z,4.18
2023-05-06T15:03:21.004Z,3.15
2023-05-06T15:09:24.919Z,2.47
2023-05-06T15:15:28.360Z,5.03
2023-05-06T15:21:33.380Z,2.80
2023-05-06T15:27:37.453Z,4.90
2023-05-06T15:33:41.064Z,4.10
2023-05-06T15:39:46.646Z,4.00
2023-05-06T15:45:50.019Z,5.93
2023-05-06T15:51:53.511Z,2.72
2023-05-06T15:58:01.023Z,4.57
2023-05-06T16:04:05.772Z,4.32
2023-05-06T16:10:09.987Z,4.85
2023-05-06T16:16:15.314Z,4.28
2023-05-06T16:22:18.976Z,4.75
2023-05-06T16:28:22.722Z,6.60
2023-05-06T16:34:28.924Z,7.53
2023-05-06T16:40:32.698Z,7.18
2023-05-06T16:46:36.358Z,4.45
2023-05-06T16:52:41.680Z,4.55
2023-05-06T16:58:45.363Z,3.83
2023-05-06T17:04:49.205Z,3.85
2023-05-06T17:10:53.979Z,4.18
2023-05-06T17:16:59.075Z,4.07
2023-05-06T17:23:02.876Z,3.17
2023-05-06T17:29:07.905Z,5.30
2023-05-06T17:35:12.388Z,3.28
2023-05-06T17:41:16.092Z,5.85
2023-05-06T17:47:22.898Z,4.75
2023-05-06T17:53:26.415Z,5.95
2023-05-06T17:59:30.016Z,2.95
2023-05-06T18:05:34.550Z,5.28
2023-05-06T18:11:40.432Z,3.33
2023-05-06T18:17:44.321Z,12.45
2023-05-06T18:23:48.518Z,11.27
2023-05-06T18:29:54.614Z,12.05
2023-05-06T18:35:58.459Z,16.25
2023-05-06T18:42:02.265Z,13.07
2023-05-06T18:48:07.282Z,15.15
2023-05-06T18:54:10.875Z,13.68
2023-05-06T19:00:15.052Z,12.57
2023-05-06T19:06:19.940Z,12.55
2023-05-06T19:12:23.652Z,15.70
2023-05-06T19:18:27.191Z,13.60
2023-05-06T19:24:32.723Z,15.45
2023-05-06T19:30:36.837Z,16.45
2023-05-06T19:36:40.550Z,17.15
2023-05-06T19:42:45.417Z,15.57
2023-05-06T19:48:49.068Z,16.98
2023-05-06T19:54:53.235Z,15.88
2023-05-06T20:00:59.110Z,16.35
2023-05-06T20:07:02.634Z,16.23
2023-05-06T20:13:07.095Z,16.25
2023-05-06T20:19:12.374Z,16.20
2023-05-06T20:25:17.678Z,14.85
2023-05-06T20:31:21.183Z,15.88
2023-05-06T20:37:26.560Z,16.90
2023-05-06T20:43:30.344Z,17.65
2023-05-06T20:49:33.804Z,16.67
2023-05-06T20:55:38.852Z,15.25
2023-05-06T21:01:42.528Z,16.90
2023-05-06T21:07:46.155Z,17.08
2023-05-06T21:13:50.960Z,17.52
2023-05-06T21:19:54.603Z,21.73
2023-05-06T21:25:59.556Z,20.80
2023-05-06T21:32:04.325Z,18.33
2023-05-06T21:38:08.177Z,18.73
2023-05-06T21:44:11.688Z,18.67
2023-05-06T21:50:16.776Z,16.77
2023-05-06T21:56:20.355Z,19.15
2023-05-06T22:02:23.924Z,14.93
2023-05-06T22:08:29.949Z,18.88
2023-05-06T22:14:40.480Z,17.08
2023-05-06T22:20:44.891Z,15.98
2023-05-06T22:26:49.706Z,18.33
2023-05-06T22:32:53.264Z,20.00
2023-05-06T22:38:56.741Z,16.85
2023-05-06T22:45:01.512Z,18.00
2023-05-06T22:51:04.922Z,18.70
2023-05-06T22:57:08.505Z,16.33
2023-05-06T23:03:13.403Z,17.23
2023-05-06T23:09:36.943Z,16.10
2023-05-06T23:15:40.783Z,15.90
2023-05-06T23:21:45.566Z,15.30
2023-05-06T23:27:49.120Z,14.45
2023-05-06T23:33:52.632Z,18.08
2023-05-06T23:39:59.144Z,13.48
2023-05-06T23:46:02.871Z,14.57
2023-05-06T23:52:06.521Z,13.70
2023-05-06T23:58:11.459Z,13.05
